Lewis, CO

4:56 PM MDT on April 27, 2017 (GMT -0600)
MSAWC2 | | Change Station

Elev 8006 ft 37.65 °N, 108.54 °W | Updated 3 hours ago

Partly Cloudy
Partly Cloudy
41.0 °F
Feels Like 34 °F
N
11.0
Wind Variable Wind from WNW
Gusts 24.0 mph

Today
High -- | Low -- °F
--% Chance of Precip.
Yesterday
High -- | Low -- °F
Precip. -- in
Pressure 29.52 in
Visibility 10.0 miles
Clouds Few 8000 ft
Overcast 10000 ft
Windchill 34 °F
Dew Point 26 °F
Humidity 54%
Rainfall 0.15 in
Snow Depth Not available.
6:23 AM 8:01 PM
Waxing Crescent, 3% visible
METAR KCEZ 272153Z AUTO 29015G24KT 10SM FEW080 OVC100 14/M03 A2966 RMK AO2 PK WND 28027/2125 RAE2058 SLP996 P0000 T01391028
Pressure 29.52 in
Visibility 10.0 miles
Clouds Few 8000 ft
Overcast 10000 ft
Windchill 34 °F
Dew Point 26 °F
Humidity 54%
Rainfall 0.15 in
Snow Depth Not available.
6:23 AM 8:01 PM
Waxing Crescent, 3% visible
METAR KCEZ 272153Z AUTO 29015G24KT 10SM FEW080 OVC100 14/M03 A2966 RMK AO2 PK WND 28027/2125 RAE2058 SLP996 P0000 T01391028

Get Severe Weather Alerts

Thanks for signing up!

Be on the lookout for a verification email in your inbox.

You'll start receiving the daily forecast at 8 AM.

×

10-Day Weather Forecast

Almanac

Astronomy

Apr. 27, 2017 Rise Set
Actual Time
Civil Twilight
Nautical Twilight
Astronomical Twilight
Moon
Length of Visible Light
Length of Day
Tomorrow will be .
, % of the Moon is Illuminated

Today's Extremes

State Highs State Lows

Community

WunderPhotos

WunderBlog® & News

Nearby

Air Quality

  Air Quality AQ Index Pollutant
Not available.

Snow Depth

Station Depth Elevation

Earthquake Activity

City Distance Mag. Time & Date
Minimum magnitude displayed is 2.5.

Coastal Water Temperatures

Place Temperature

Stations

Nearby Weather Stations

Station Location Temp. Windchill Dew Point Humidity Wind Precip. Elev Updated Type
                   

Watches & Warnings

There are currently no watches in effect.